Time;durP1;ratioP1;P1;durP2;ratioP2;P2;SDS_P1;SDS_P2;PMS_P1;PMS_P2;Temp;Humidity;BMP_temperature;BMP_pressure;BME280_temperature;BME280_humidity;BME280_pressure;Samples;Min_cycle;Max_cycle;Signal;HPM_P1;HPM_P2
2022/04/03 00:02:07;;;;;;;14.53;9.13;;;;;;;20.26;49.80;97919.87;1776171;80;27621;-92
2022/04/03 00:04:33;;;;;;;13.13;8.53;;;;;;;20.25;49.82;97923.23;1775969;80;25921;-91
2022/04/03 00:07:00;;;;;;;14.55;9.40;;;;;;;20.25;49.80;97927.41;1776030;80;25413;-91
2022/04/03 00:09:27;;;;;;;13.20;8.90;;;;;;;20.26;49.82;97929.61;1775393;80;25733;-92
2022/04/03 00:11:53;;;;;;;12.80;8.93;;;;;;;20.26;49.80;97932.39;1776083;80;25704;-91
2022/04/03 00:14:19;;;;;;;13.32;8.88;;;;;;;20.25;49.81;97935.75;1775945;80;28198;-92
2022/04/03 00:16:45;;;;;;;15.00;8.98;;;;;;;20.25;49.82;97934.36;1775828;80;25851;-91
2022/04/03 00:19:11;;;;;;;13.95;8.73;;;;;;;20.25;49.82;97934.36;1774844;79;25437;-91
2022/04/03 00:21:38;;;;;;;13.72;8.93;;;;;;;20.26;49.81;97937.95;1765564;80;25786;-91
2022/04/03 00:24:05;;;;;;;13.45;9.10;;;;;;;20.26;49.82;97941.51;1763713;80;25729;-91
2022/04/03 00:26:32;;;;;;;13.28;8.63;;;;;;;20.26;49.83;97937.95;1765697;81;28360;-91
2022/04/03 00:28:58;;;;;;;14.05;8.90;;;;;;;20.26;49.82;97942.13;1765630;81;25669;-91
2022/04/03 00:31:24;;;;;;;15.85;8.80;;;;;;;20.27;49.83;97938.14;1766126;80;25666;-90
2022/04/03 00:33:50;;;;;;;14.35;9.00;;;;;;;20.27;49.86;97947.27;1766038;80;26537;-89
2022/04/03 00:36:17;;;;;;;13.48;8.63;;;;;;;20.27;49.83;97946.48;1766143;80;25756;-90
2022/04/03 00:38:43;;;;;;;11.78;7.97;;;;;;;20.26;49.84;97943.52;1766121;80;28278;-89
2022/04/03 00:41:10;;;;;;;14.90;9.13;;;;;;;20.26;49.84;97949.08;1765959;80;25708;-90
2022/04/03 00:43:36;;;;;;;12.28;8.25;;;;;;;20.26;49.84;97952.64;1765782;80;25637;-89
2022/04/03 00:46:03;;;;;;;12.98;8.48;;;;;;;20.26;49.85;97950.47;1766084;80;25791;-89
2022/04/03 00:48:30;;;;;;;13.60;8.38;;;;;;;20.25;49.85;97951.06;1765804;80;25609;-89
2022/04/03 00:50:56;;;;;;;13.80;8.23;;;;;;;20.26;49.87;97951.25;1766061;81;27499;-89
2022/04/03 00:53:23;;;;;;;14.15;8.35;;;;;;;20.27;49.86;97946.48;1766136;81;25467;-90
2022/04/03 00:55:51;;;;;;;12.65;7.67;;;;;;;20.26;49.85;97949.08;1765698;80;25696;-89
2022/04/03 00:58:18;;;;;;;13.62;8.48;;;;;;;20.25;49.85;97951.64;1766028;81;26634;-89
2022/04/03 01:00:44;;;;;;;11.08;7.90;;;;;;;20.27;49.86;97956.22;1766014;80;25711;-89
2022/04/03 01:03:10;;;;;;;17.65;7.95;;;;;;;20.25;49.89;97960.80;1765974;80;28334;-89
2022/04/03 01:05:36;;;;;;;12.18;7.72;;;;;;;20.27;49.88;97956.22;1765932;80;25646;-89
2022/04/03 01:08:03;;;;;;;13.40;8.38;;;;;;;20.27;49.90;97962.56;1765644;81;25629;-89
2022/04/03 01:10:29;;;;;;;13.13;7.95;;;;;;;20.25;49.89;97959.41;1765927;80;25746;-89
2022/04/03 01:12:55;;;;;;;13.38;8.00;;;;;;;20.25;49.89;97962.77;1766236;80;25491;-88
2022/04/03 01:15:21;;;;;;;11.65;8.05;;;;;;;20.25;49.91;97962.19;1765901;80;28243;-89
2022/04/03 01:17:47;;;;;;;12.23;8.18;;;;;;;20.25;49.90;97962.19;1765986;80;25773;-89
2022/04/03 01:20:14;;;;;;;12.23;7.37;;;;;;;20.26;49.91;97958.81;1765834;80;25637;-89
2022/04/03 01:22:41;;;;;;;11.28;7.67;;;;;;;20.24;49.91;97960.61;1766065;80;25717;-89
2022/04/03 01:25:11;;;;;;;13.60;8.23;;;;;;;20.25;49.92;97965.55;1765834;80;25449;-90
2022/04/03 01:27:39;;;;;;;11.12;7.78;;;;;;;20.25;49.93;97961.38;1765846;81;28140;-89
2022/04/03 01:30:08;;;;;;;11.35;7.33;;;;;;;20.24;49.93;97971.73;1765527;80;25620;-89
2022/04/03 01:32:34;;;;;;;12.88;8.10;;;;;;;20.24;49.93;97967.56;1766054;80;25774;-89
2022/04/03 01:35:00;;;;;;;11.50;7.55;;;;;;;20.24;49.93;97966.17;1765922;80;25796;-90
2022/04/03 01:37:26;;;;;;;11.50;7.55;;;;;;;20.25;49.96;97969.73;1766070;80;25602;-89
2022/04/03 01:39:52;;;;;;;11.83;7.75;;;;;;;20.24;49.95;97973.13;1765921;80;27423;-90
2022/04/03 01:42:18;;;;;;;12.47;7.72;;;;;;;20.25;49.95;97978.07;1766014;80;25872;-90
2022/04/03 01:44:44;;;;;;;11.35;7.30;;;;;;;20.24;49.96;97975.91;1765886;81;25620;-90
2022/04/03 01:47:10;;;;;;;10.95;7.60;;;;;;;20.26;49.92;97982.47;1765931;80;25668;-90
2022/04/03 01:49:36;;;;;;;12.33;7.45;;;;;;;20.25;49.95;97978.88;1766110;80;25652;-90
2022/04/03 01:52:02;;;;;;;10.93;7.35;;;;;;;20.25;49.95;97979.46;1765985;80;28218;-90
2022/04/03 01:54:28;;;;;;;11.40;7.05;;;;;;;20.25;49.96;97982.24;1765884;80;25602;-90
2022/04/03 01:56:54;;;;;;;9.93;7.05;;;;;;;20.25;49.96;97985.02;1766031;81;25675;-89
2022/04/03 01:59:20;;;;;;;12.05;7.42;;;;;;;20.25;49.97;97991.98;1765941;81;25768;-90
2022/04/03 02:01:47;;;;;;;11.05;7.62;;;;;;;20.24;49.96;97988.42;1766192;81;25646;-90
2022/04/03 02:04:13;;;;;;;11.43;7.55;;;;;;;20.25;49.99;97996.16;1765933;80;27358;-90
2022/04/03 02:06:40;;;;;;;10.55;6.95;;;;;;;20.25;49.97;97996.95;1765675;80;25455;-90
2022/04/03 02:09:08;;;;;;;10.80;7.25;;;;;;;20.25;49.96;97998.34;1765900;80;25701;-90
2022/04/03 02:11:35;;;;;;;11.70;7.53;;;;;;;20.25;49.99;98001.72;1765600;80;26609;-90
2022/04/03 02:14:02;;;;;;;10.53;7.10;;;;;;;20.25;49.98;97996.16;1765909;80;25681;-90
2022/04/03 02:16:28;;;;;;;11.93;7.45;;;;;;;20.25;49.96;98002.52;1766013;80;27503;-91
2022/04/03 02:18:54;;;;;;;10.68;7.08;;;;;;;20.25;49.97;98005.89;1765971;80;25735;-90
2022/04/03 02:21:20;;;;;;;10.98;6.92;;;;;;;20.25;49.99;97996.16;1765703;80;25753;-90
2022/04/03 02:23:46;;;;;;;10.85;6.78;;;;;;;20.24;50.00;98002.92;1766007;80;25736;-90
2022/04/03 02:26:12;;;;;;;12.78;7.05;;;;;;;20.25;49.98;98003.91;1765960;80;25644;-90
2022/04/03 02:28:39;;;;;;;10.93;6.97;;;;;;;20.25;49.98;98005.89;1765923;80;27580;-91
2022/04/03 02:31:05;;;;;;;9.95;6.70;;;;;;;20.25;49.99;98005.30;1765589;80;25700;-91
2022/04/03 02:33:31;;;;;;;9.88;6.33;;;;;;;20.25;49.99;98009.48;1766337;80;25763;-91
2022/04/03 02:35:57;;;;;;;11.63;7.03;;;;;;;20.25;49.97;98012.26;1765864;81;26556;-90
2022/04/03 02:38:23;;;;;;;10.10;6.65;;;;;;;20.25;49.98;98015.04;1765970;80;25799;-90
2022/04/03 02:40:49;;;;;;;10.80;6.80;;;;;;;20.26;49.99;98015.84;1766068;80;27441;-90
2022/04/03 02:43:15;;;;;;;9.58;6.50;;;;;;;20.27;49.99;98018.81;1765831;81;25503;-89
2022/04/03 02:45:41;;;;;;;11.03;6.67;;;;;;;20.27;50.01;98018.81;1766028;81;25733;-90
2022/04/03 02:48:08;;;;;;;9.83;6.45;;;;;;;20.26;50.00;98024.19;1765621;80;25794;-90
2022/04/03 02:50:35;;;;;;;10.53;6.62;;;;;;;20.26;50.00;98024.97;1766056;80;25683;-91
2022/04/03 02:53:01;;;;;;;10.00;6.37;;;;;;;20.27;50.01;98028.55;1765993;80;27471;-91
2022/04/03 02:55:27;;;;;;;9.75;6.30;;;;;;;20.25;50.04;98026.17;1765855;80;25886;-91
2022/04/03 02:57:53;;;;;;;9.45;6.00;;;;;;;20.26;50.00;98035.32;1765920;80;25419;-89
2022/04/03 03:00:21;;;;;;;9.65;6.65;;;;;;;20.26;50.04;98036.71;1766016;80;25932;-90
2022/04/03 03:02:49;;;;;;;9.45;6.42;;;;;;;20.26;50.02;98037.48;1765968;81;25469;-90
2022/04/03 03:05:16;;;;;;;10.48;6.03;;;;;;;20.26;50.03;98032.54;1766002;80;27488;-90
2022/04/03 03:07:49;;;;;;;9.88;6.40;;;;;;;20.27;50.02;98037.68;1765576;81;25456;-90
2022/04/03 03:10:22;;;;;;;10.58;6.72;;;;;;;20.26;50.04;98036.09;1765636;80;25626;-90
2022/04/03 03:12:48;;;;;;;9.75;6.33;;;;;;;20.27;50.03;98038.30;1765742;80;26587;-89
2022/04/03 03:15:15;;;;;;;8.98;5.58;;;;;;;20.27;50.01;98038.30;1765972;80;25720;-89
2022/04/03 03:17:42;;;;;;;11.55;6.60;;;;;;;20.27;50.04;98039.69;1765956;80;28168;-89
2022/04/03 03:20:10;;;;;;;8.90;6.17;;;;;;;20.27;50.04;98041.85;1765518;80;25441;-89
2022/04/03 03:22:37;;;;;;;8.85;6.30;;;;;;;20.29;50.04;98044.23;1765929;80;25733;-89
2022/04/03 03:25:05;;;;;;;9.28;6.12;;;;;;;20.28;50.01;98044.86;1765927;80;26449;-89
2022/04/03 03:27:39;;;;;;;8.83;5.87;;;;;;;20.27;50.04;98046.64;1765647;81;25644;-90
2022/04/03 03:30:08;;;;;;;8.88;5.67;;;;;;;20.28;50.02;98047.64;1765593;81;28465;-89
2022/04/03 03:32:34;;;;;;;8.85;5.78;;;;;;;20.27;50.02;98052.98;1765786;80;25756;-89
2022/04/03 03:35:01;;;;;;;8.90;6.15;;;;;;;20.27;50.03;98054.98;1765970;81;25479;-89
2022/04/03 03:37:27;;;;;;;9.98;6.30;;;;;;;20.27;50.05;98046.64;1765748;80;25678;-89
2022/04/03 03:39:53;;;;;;;8.13;5.47;;;;;;;20.27;50.04;98052.98;1765961;81;25558;-89
2022/04/03 03:42:20;;;;;;;9.35;5.92;;;;;;;20.28;50.04;98053.78;1765922;80;27401;-89
2022/04/03 03:44:46;;;;;;;8.88;6.00;;;;;;;20.28;50.06;98056.56;1765866;80;25606;-89
2022/04/03 03:47:13;;;;;;;8.58;5.97;;;;;;;20.27;50.05;98054.38;1765966;80;25578;-89
2022/04/03 03:49:39;;;;;;;8.20;5.62;;;;;;;20.28;50.06;98056.56;1765505;80;25661;-89
2022/04/03 03:52:06;;;;;;;8.90;5.92;;;;;;;20.28;50.06;98062.94;1765968;80;25621;-89
2022/04/03 03:54:32;;;;;;;8.95;5.85;;;;;;;20.29;50.08;98066.50;1765981;81;28297;-89
2022/04/03 03:56:59;;;;;;;8.43;5.92;;;;;;;20.29;50.07;98077.04;1765743;80;25775;-89
2022/04/03 03:59:25;;;;;;;8.40;5.85;;;;;;;20.30;50.06;98077.23;1765849;80;25648;-89
2022/04/03 04:01:51;;;;;;;9.00;5.85;;;;;;;20.31;50.08;98076.65;1765945;80;25817;-89
2022/04/03 04:04:17;;;;;;;9.43;6.10;;;;;;;20.31;50.03;98078.84;1765908;80;25693;-89
2022/04/03 04:06:43;;;;;;;9.23;6.15;;;;;;;20.31;50.04;98079.43;1765886;80;27374;-89
2022/04/03 04:09:09;;;;;;;9.93;6.45;;;;;;;20.30;50.04;98080.02;1765853;80;25681;-89
2022/04/03 04:11:35;;;;;;;8.23;6.20;;;;;;;20.31;50.08;98083.60;1765846;80;25705;-89
2022/04/03 04:14:01;;;;;;;9.30;6.97;;;;;;;20.31;50.07;98089.16;1765831;80;26484;-89
2022/04/03 04:16:27;;;;;;;9.53;5.97;;;;;;;20.31;50.07;98094.73;1765843;80;25669;-89
2022/04/03 04:18:52;;;;;;;9.85;6.40;;;;;;;20.31;50.07;98100.30;1765927;80;27444;-89
2022/04/03 04:21:18;;;;;;;9.43;6.08;;;;;;;20.30;50.06;98095.31;1767017;79;25905;-89
2022/04/03 04:23:44;;;;;;;11.80;6.60;;;;;;;20.31;50.08;98100.30;1770048;81;25603;-89
2022/04/03 04:26:10;;;;;;;9.55;6.03;;;;;;;20.31;50.05;98102.49;1769888;80;25685;-89
2022/04/03 04:28:36;;;;;;;9.28;5.95;;;;;;;20.31;50.08;98103.89;1770010;81;25646;-90
2022/04/03 04:31:02;;;;;;;9.43;6.22;;;;;;;20.31;50.07;98108.06;1769959;80;27574;-90
2022/04/03 04:33:28;;;;;;;9.85;6.00;;;;;;;20.32;50.08;98108.84;1769850;80;25617;-91
2022/04/03 04:35:55;;;;;;;9.78;6.60;;;;;;;20.31;50.08;98109.45;1770037;80;25415;-90
2022/04/03 04:38:21;;;;;;;8.95;6.00;;;;;;;20.30;50.09;98110.62;1769959;80;25658;-89
2022/04/03 04:40:48;;;;;;;9.53;6.33;;;;;;;20.30;50.09;98118.97;1770013;80;25689;-89
2022/04/03 04:43:14;;;;;;;9.78;6.22;;;;;;;20.31;50.10;98112.81;1769946;80;28335;-89
2022/04/03 04:45:40;;;;;;;9.85;6.17;;;;;;;20.30;50.08;98117.58;1769768;81;25681;-89
2022/04/03 04:48:06;;;;;;;9.70;6.65;;;;;;;20.30;50.10;98123.14;1770037;81;25737;-90
2022/04/03 04:50:32;;;;;;;8.80;6.10;;;;;;;20.31;50.10;98127.53;1769967;81;25673;-91
2022/04/03 04:52:58;;;;;;;9.53;6.17;;;;;;;20.31;50.10;98125.34;1770141;81;25582;-90
2022/04/03 04:55:26;;;;;;;9.78;6.30;;;;;;;20.31;50.09;98137.86;1769751;80;28241;-91
2022/04/03 04:57:56;;;;;;;9.90;6.12;;;;;;;20.30;50.12;98141.22;1770691;80;25663;-90
2022/04/03 05:00:27;;;;;;;9.05;5.72;;;;;;;20.31;50.11;98144.81;1773722;80;25628;-91
2022/04/03 05:02:53;;;;;;;8.43;5.65;;;;;;;20.31;50.11;98144.81;1772683;80;32411;-90
2022/04/03 05:05:24;;;;;;;9.58;5.97;;;;;;;20.31;50.12;98144.81;1773696;80;25611;-90
2022/04/03 05:07:54;;;;;;;9.83;6.42;;;;;;;20.30;50.12;98153.74;1769252;80;28382;-90
2022/04/03 05:10:21;;;;;;;9.33;5.87;;;;;;;20.29;50.14;98146.59;1772845;80;25689;-91
2022/04/03 05:12:47;;;;;;;7.92;5.80;;;;;;;20.29;50.16;98153.55;1773176;80;25784;-90
2022/04/03 05:15:13;;;;;;;8.63;5.97;;;;;;;20.30;50.17;98152.97;1773542;80;25738;-90
2022/04/03 05:17:42;;;;;;;8.13;5.72;;;;;;;20.29;50.18;98152.74;1772975;80;25475;-91
2022/04/03 05:20:15;;;;;;;7.92;5.78;;;;;;;20.29;50.18;98161.09;1768055;80;27338;-91
2022/04/03 05:22:42;;;;;;;9.13;6.05;;;;;;;20.29;50.19;98168.05;1773640;79;25452;-90
2022/04/03 05:25:11;;;;;;;9.63;6.05;;;;;;;20.29;50.19;98168.85;1768684;80;25455;-91
2022/04/03 05:27:39;;;;;;;7.30;5.22;;;;;;;20.29;50.19;98169.44;1773887;80;25893;-91
2022/04/03 05:30:07;;;;;;;8.53;5.70;;;;;;;20.28;50.23;98181.77;1772568;80;25412;-90
2022/04/03 05:32:35;;;;;;;8.78;5.87;;;;;;;20.28;50.23;98190.91;1774186;80;27349;-91
2022/04/03 05:35:01;;;;;;;9.83;6.42;;;;;;;20.27;50.25;98185.13;1774320;80;25983;-91
2022/04/03 05:37:27;;;;;;;9.30;6.10;;;;;;;20.28;50.26;98190.11;1773149;80;25469;-91
2022/04/03 05:39:53;;;;;;;9.10;5.97;;;;;;;20.27;50.27;98187.91;1773821;80;25704;-90
2022/04/03 05:42:21;;;;;;;8.95;5.83;;;;;;;20.28;50.28;98192.89;1774661;80;25712;-90
2022/04/03 05:44:47;;;;;;;8.95;5.85;;;;;;;20.27;50.28;98187.91;1773658;80;27555;-90
2022/04/03 05:47:17;;;;;;;7.62;5.53;;;;;;;20.26;50.32;98185.55;1782376;80;25697;-89
2022/04/03 05:49:41;;;;;;;8.15;5.67;;;;;;;20.27;50.32;98194.87;1774834;80;25685;-89
2022/04/03 05:52:08;;;;;;;8.08;5.58;;;;;;;20.26;50.34;98197.45;1773234;80;25807;-90
2022/04/03 05:54:33;;;;;;;8.05;6.08;;;;;;;20.26;50.36;98198.84;1774557;80;25766;-90
2022/04/03 05:57:00;;;;;;;8.00;5.65;;;;;;;20.26;50.37;98203.02;1772613;80;27388;-89
2022/04/03 05:59:26;;;;;;;8.40;5.90;;;;;;;20.27;50.36;98206.61;1772746;80;25761;-89
2022/04/03 06:01:52;;;;;;;10.05;6.17;;;;;;;20.27;50.36;98210.17;1772925;80;25780;-89
2022/04/03 06:04:18;;;;;;;8.23;5.70;;;;;;;20.27;50.42;98219.13;1772214;80;25573;-89
2022/04/03 06:06:44;;;;;;;9.23;6.25;;;;;;;20.26;50.42;98213.38;1765616;80;25763;-89
2022/04/03 06:09:10;;;;;;;7.92;5.75;;;;;;;20.26;50.45;98218.94;1748408;81;27399;-89
2022/04/03 06:11:36;;;;;;;8.30;5.90;;;;;;;20.25;50.48;98222.30;1766019;80;25676;-89
2022/04/03 06:14:02;;;;;;;9.80;5.87;;;;;;;20.25;50.43;98228.45;1765931;80;25698;-89
2022/04/03 06:16:29;;;;;;;9.58;5.90;;;;;;;20.25;50.41;98225.08;1765889;80;25694;-90
2022/04/03 06:18:55;;;;;;;8.85;6.15;;;;;;;20.25;50.42;98230.65;1765974;81;25740;-89
2022/04/03 06:21:21;;;;;;;8.45;5.78;;;;;;;20.24;50.44;98236.02;1765686;79;28239;-89
2022/04/03 06:23:48;;;;;;;7.40;5.47;;;;;;;20.25;50.45;98236.80;1769551;79;25606;-90
2022/04/03 06:26:15;;;;;;;9.15;5.92;;;;;;;20.25;50.48;98239.58;1792923;79;25914;-89
2022/04/03 06:28:41;;;;;;;8.33;6.08;;;;;;;20.24;50.48;98242.97;1794674;79;26704;-91
2022/04/03 06:31:07;;;;;;;7.83;5.60;;;;;;;20.25;50.47;98245.95;1790672;78;26040;-90
2022/04/03 06:33:34;;;;;;;9.28;5.78;;;;;;;20.26;50.43;98245.37;1778910;80;27376;-90
2022/04/03 06:36:00;;;;;;;8.00;5.67;;;;;;;20.25;50.37;98251.52;1778874;80;25794;-90
2022/04/03 06:38:27;;;;;;;8.25;6.00;;;;;;;20.25;50.30;98255.69;1779114;80;25716;-91
2022/04/03 06:40:57;;;;;;;9.35;5.92;;;;;;;20.24;50.31;98257.47;1780289;80;25655;-90
2022/04/03 06:43:27;;;;;;;9.65;6.50;;;;;;;20.25;50.29;98260.44;1780858;80;25762;-92
2022/04/03 06:45:55;;;;;;;9.80;5.80;;;;;;;20.26;50.32;98267.62;1780858;80;27376;-91
2022/04/03 06:48:23;;;;;;;9.55;6.08;;;;;;;20.25;50.38;98263.23;1780688;80;25637;-91
2022/04/03 06:50:50;;;;;;;11.97;6.08;;;;;;;20.26;50.48;98265.62;1780840;80;25581;-91
2022/04/03 06:53:16;;;;;;;10.65;5.92;;;;;;;20.28;50.51;98263.84;1780418;80;25755;-92
2022/04/03 06:55:42;;;;;;;8.98;6.10;;;;;;;20.29;50.53;98268.20;1780965;80;25594;-93
2022/04/03 06:58:08;;;;;;;11.25;6.03;;;;;;;20.30;50.55;98270.60;1780789;80;27355;-93
2022/04/03 07:00:40;;;;;;;9.98;6.25;;;;;;;20.31;50.61;98275.58;1779964;79;25656;-93
2022/04/03 07:03:07;;;;;;;10.38;6.62;;;;;;;20.34;50.69;98283.73;1757824;79;25481;-92
2022/04/03 07:05:33;;;;;;;11.05;6.40;;;;;;;20.36;50.78;98283.57;1747720;82;25777;-92
2022/04/03 07:07:59;;;;;;;10.82;6.28;;;;;;;20.39;50.84;98288.94;1749015;82;25783;-91
2022/04/03 07:10:26;;;;;;;10.70;6.67;;;;;;;20.39;50.93;98288.94;1749359;81;27337;-92
2022/04/03 07:12:54;;;;;;;11.75;6.55;;;;;;;20.41;51.00;98289.36;1754505;80;25685;-91
2022/04/03 07:15:20;;;;;;;9.68;6.22;;;;;;;20.44;51.07;98294.15;1768663;80;25705;-92
2022/04/03 07:17:46;;;;;;;9.90;6.53;;;;;;;20.45;51.17;98299.91;1779917;80;26525;-92
2022/04/03 07:20:15;;;;;;;11.08;6.15;;;;;;;20.47;51.16;98298.94;1782421;80;25731;-92
2022/04/03 07:22:43;;;;;;;10.95;6.33;;;;;;;20.51;51.30;98304.50;1782147;78;28379;-93
2022/04/03 07:25:12;;;;;;;11.70;6.50;;;;;;;20.55;51.37;98306.11;1782210;80;25445;-93
2022/04/03 07:27:41;;;;;;;10.82;6.05;;;;;;;20.59;51.40;98305.34;1781459;80;25627;-92
2022/04/03 07:30:10;;;;;;;10.20;6.40;;;;;;;20.63;51.44;98313.10;1781588;80;25754;-92
2022/04/03 07:32:40;;;;;;;10.90;6.45;;;;;;;20.65;51.46;98317.11;1782488;80;25369;-92
2022/04/03 07:35:07;;;;;;;12.78;6.72;;;;;;;20.68;51.47;98314.94;1782349;80;28131;-92
2022/04/03 07:37:33;;;;;;;10.00;6.28;;;;;;;20.71;51.53;98322.28;1782323;80;26018;-92
2022/04/03 07:40:03;;;;;;;11.93;6.40;;;;;;;20.74;51.59;98326.49;1782370;80;25594;-92
2022/04/03 07:42:29;;;;;;;10.05;6.33;;;;;;;20.77;51.68;98325.70;1782399;80;25428;-91
2022/04/03 07:44:55;;;;;;;12.23;6.80;;;;;;;20.80;51.70;98325.52;1782585;80;25584;-91
2022/04/03 07:47:21;;;;;;;10.58;6.42;;;;;;;20.81;51.72;98332.67;1782451;80;27354;-91
2022/04/03 07:49:48;;;;;;;12.78;6.58;;;;;;;20.84;51.72;98338.84;1782330;80;25848;-92
2022/04/03 07:52:15;;;;;;;11.65;6.80;;;;;;;20.88;51.70;98343.05;1782311;80;25604;-92
2022/04/03 07:54:41;;;;;;;12.05;6.22;;;;;;;20.90;51.74;98351.23;1782026;80;25771;-92
2022/04/03 07:57:07;;;;;;;10.85;6.60;;;;;;;20.91;51.74;98348.67;1781669;80;25795;-91
2022/04/03 07:59:34;;;;;;;11.75;6.65;;;;;;;20.94;51.78;98349.88;1782410;80;27530;-93
2022/04/03 08:02:02;;;;;;;10.35;6.78;;;;;;;20.95;51.78;98352.84;1782236;80;25438;-93
2022/04/03 08:04:29;;;;;;;11.80;6.83;;;;;;;20.96;51.71;98357.25;1782125;80;25602;-93
2022/04/03 08:06:55;;;;;;;11.97;7.12;;;;;;;20.99;51.74;98361.23;1782325;80;25746;-91
2022/04/03 08:09:23;;;;;;;11.60;6.70;;;;;;;21.01;51.72;98361.03;1782374;80;25452;-92
2022/04/03 08:11:49;;;;;;;10.70;6.62;;;;;;;21.03;51.69;98373.17;1782002;80;28229;-90
2022/04/03 08:14:16;;;;;;;11.83;7.15;;;;;;;21.03;51.67;98371.20;1782261;80;25451;-89
2022/04/03 08:16:42;;;;;;;11.03;6.58;;;;;;;21.05;51.64;98374.40;1781991;80;25685;-91
2022/04/03 08:19:09;;;;;;;11.60;6.67;;;;;;;21.06;51.64;98373.78;1782376;80;25727;-91
2022/04/03 08:21:35;;;;;;;13.28;7.30;;;;;;;21.06;51.63;98373.78;1782161;80;25405;-93
2022/04/03 08:24:01;;;;;;;12.10;6.67;;;;;;;21.06;51.62;98375.98;1782096;79;28062;-92
2022/04/03 08:26:27;;;;;;;12.03;7.08;;;;;;;21.08;51.62;98387.33;1782195;80;25743;-91
2022/04/03 08:28:54;;;;;;;13.53;6.55;;;;;;;21.06;51.59;98381.56;1782228;80;25511;-92
2022/04/03 08:31:33;;;;;;;11.97;7.15;;;;;;;21.09;51.58;98382.75;1783608;78;25688;-96
2022/04/03 08:34:01;;;;;;;11.85;6.75;;;;;;;21.09;51.58;98388.33;1691580;81;25457;-96
2022/04/03 08:36:30;;;;;;;13.00;7.10;;;;;;;21.10;51.57;98394.70;1693053;81;27453;-96
2022/04/03 08:39:01;;;;;;;11.95;7.00;;;;;;;21.10;51.55;98396.09;1692990;81;25297;-92
2022/04/03 08:41:28;;;;;;;14.63;7.30;;;;;;;21.10;51.54;98389.13;1689824;81;25517;-96
2022/04/03 08:43:57;;;;;;;13.25;7.75;;;;;;;21.11;51.50;98396.29;1691638;81;25702;-89
2022/04/03 08:46:25;;;;;;;12.55;7.17;;;;;;;21.12;51.40;98395.09;1691282;84;25672;-91
2022/04/03 08:48:53;;;;;;;13.90;7.05;;;;;;;21.12;51.38;98400.08;1691331;84;27626;-95
2022/04/03 08:51:20;;;;;;;16.55;7.10;;;;;;;21.11;51.35;98404.06;1690825;84;25707;-94
2022/04/03 08:53:49;;;;;;;13.62;7.53;;;;;;;21.11;51.34;98404.65;1690619;84;25692;-95
2022/04/03 08:56:16;;;;;;;13.05;7.25;;;;;;;21.11;51.31;98406.84;1690102;84;26418;-92
2022/04/03 08:58:42;;;;;;;13.60;7.58;;;;;;;21.12;51.30;98410.41;1671426;84;25932;-90
2022/04/03 09:01:10;;;;;;;14.35;7.20;;;;;;;21.14;51.29;98403.28;1665690;84;27558;-91
2022/04/03 09:03:37;;;;;;;14.90;7.25;;;;;;;21.16;51.26;98412.64;1665885;84;25726;-89
2022/04/03 09:06:15;;;;;;;12.93;7.35;;;;;;;21.17;51.23;98412.25;1669838;84;25584;-89
2022/04/03 09:08:43;;;;;;;13.72;7.10;;;;;;;21.20;51.22;98416.23;1669817;84;25757;-89
2022/04/03 09:11:10;;;;;;;15.63;7.03;;;;;;;21.20;51.20;98419.02;1671240;84;25720;-90
2022/04/03 09:13:39;;;;;;;11.88;6.85;;;;;;;21.22;51.14;98426.98;1664860;84;28188;-90
2022/04/03 09:16:07;;;;;;;11.85;7.08;;;;;;;21.24;51.10;98427.41;1670525;84;25655;-91
2022/04/03 09:18:52;;;;;;;13.25;7.53;;;;;;;21.24;51.10;98428.80;1675701;84;25484;-88
2022/04/03 09:21:22;;;;;;;12.45;7.05;;;;;;;21.25;51.08;98422.83;1690041;84;27482;-91
2022/04/03 09:24:10;;;;;;;12.50;7.35;;;;;;;21.27;51.04;98434.98;1686816;84;25819;-89
2022/04/03 09:26:40;;;;;;;13.40;6.80;;;;;;;21.24;51.03;98428.80;1685586;85;26821;-90
2022/04/03 09:29:12;;;;;;;14.98;7.55;;;;;;;21.29;50.95;98437.57;1685400;85;25935;-88
2022/04/03 09:31:40;;;;;;;13.22;6.80;;;;;;;21.29;50.94;98444.53;1736794;82;25698;-90
2022/04/03 09:34:10;;;;;;;11.48;6.83;;;;;;;21.29;50.91;98444.53;1743864;82;25689;-89
2022/04/03 09:36:37;;;;;;;;;;;;;;;21.29;50.86;98443.14;1745826;82;25895;-89
2022/04/03 09:39:15;;;;;;;13.60;6.78;;;;;;;21.30;50.82;98443.95;1743260;81;27661;-90
2022/04/03 09:42:02;;;;;;;12.82;6.80;;;;;;;21.30;50.86;98451.70;1743337;82;25726;-89
2022/04/03 09:44:38;;;;;;;11.78;6.60;;;;;;;21.32;50.90;98451.30;1743898;82;25675;-91
2022/04/03 09:47:30;;;;;;;14.23;7.10;;;;;;;21.31;50.91;98457.49;1743706;82;25608;-90
2022/04/03 09:50:02;;;;;;;13.48;7.20;;;;;;;21.32;50.92;98455.48;1743376;82;25481;-89
2022/04/03 09:52:43;;;;;;;14.68;7.03;;;;;;;21.31;50.89;98451.11;1743766;82;27462;-91
2022/04/03 09:55:23;;;;;;;;;;;;;;;21.30;50.80;98457.88;1734855;82;25682;-91
2022/04/03 09:58:05;;;;;;;12.47;6.92;;;;;;;21.28;50.80;98456.88;1744108;81;25594;-90
2022/04/03 10:00:37;;;;;;;13.90;7.15;;;;;;;21.27;50.80;98453.09;1743769;82;25732;-93
2022/04/03 10:03:04;;;;;;;13.00;7.25;;;;;;;21.26;50.81;98453.67;1743545;82;25590;-92
2022/04/03 10:05:36;;;;;;;11.80;6.80;;;;;;;21.26;50.81;98457.05;1743906;82;28221;-89
2022/04/03 10:08:05;;;;;;;11.65;6.50;;;;;;;21.26;50.82;98458.44;1743411;82;25948;-88
2022/04/03 10:10:37;;;;;;;12.68;7.17;;;;;;;21.28;50.80;98465.83;1743730;82;25717;-89
2022/04/03 10:13:05;;;;;;;14.20;7.00;;;;;;;21.27;50.81;98460.84;1743814;82;25794;-89
2022/04/03 10:15:32;;;;;;;14.40;7.25;;;;;;;21.27;50.78;98467.80;1743790;82;25691;-88
2022/04/03 10:17:58;;;;;;;12.13;7.05;;;;;;;21.26;50.80;98466.22;1743735;82;27386;-89
2022/04/03 10:20:30;;;;;;;11.80;6.80;;;;;;;21.26;50.83;98466.22;1743798;82;25675;-88
2022/04/03 10:23:08;;;;;;;15.38;7.62;;;;;;;21.27;50.86;98465.63;1751059;80;25666;-89
2022/04/03 10:25:41;;;;;;;13.20;7.22;;;;;;;21.26;50.90;98464.02;1774090;80;25971;-90
2022/04/03 10:28:09;;;;;;;13.62;7.12;;;;;;;21.26;50.95;98463.44;1774248;80;25696;-88
2022/04/03 10:30:39;;;;;;;15.25;7.67;;;;;;;21.26;51.01;98467.61;1744236;80;27476;-88
2022/04/03 10:33:08;;;;;;;14.45;7.78;;;;;;;21.27;51.04;98470.59;1774546;80;25654;-88
2022/04/03 10:35:36;;;;;;;12.18;7.55;;;;;;;21.28;51.07;98473.61;1774408;80;25642;-88
2022/04/03 10:38:05;;;;;;;13.88;7.10;;;;;;;21.30;51.12;98467.64;1774357;80;26881;-89
2022/04/03 10:40:35;;;;;;;13.20;7.20;;;;;;;21.30;51.17;98473.99;1774474;80;25605;-89
2022/04/03 10:43:06;;;;;;;15.50;7.75;;;;;;;21.31;51.19;98472.82;1774236;80;27390;-88
2022/04/03 10:45:47;;;;;;;14.73;7.62;;;;;;;21.34;51.29;98474.60;1774018;80;25905;-90
2022/04/03 10:48:26;;;;;;;;;;;;;;;21.37;51.37;98474.63;1775650;80;25666;-88
2022/04/03 10:51:03;;;;;;;14.10;7.25;;;;;;;21.40;51.59;98478.03;1774129;80;26621;-89
2022/04/03 10:53:37;;;;;;;12.20;7.42;;;;;;;21.40;51.58;98482.20;1774605;80;25448;-91
2022/04/03 10:56:11;;;;;;;12.47;7.22;;;;;;;21.43;51.67;98480.61;1773568;80;27449;-90
2022/04/03 10:58:44;;;;;;;13.93;7.37;;;;;;;21.44;51.73;98484.99;1768263;80;25820;-91
2022/04/03 11:01:27;;;;;;;15.00;7.58;;;;;;;21.44;51.80;98478.83;1774425;80;25420;-90
2022/04/03 11:04:04;;;;;;;13.55;7.50;;;;;;;21.47;51.89;98484.83;1774586;80;25896;-90
2022/04/03 11:06:34;;;;;;;15.43;7.42;;;;;;;21.48;52.00;98480.84;1774570;80;25607;-90
2022/04/03 11:09:07;;;;;;;13.30;7.57;;;;;;;21.49;52.10;98483.23;1774654;80;27522;-91
2022/04/03 11:11:58;;;;;;;13.88;7.17;;;;;;;21.51;52.32;98494.80;1774033;80;25464;-93
2022/04/03 11:14:52;;;;;;;12.90;7.67;;;;;;;21.52;52.39;98488.61;1774582;80;25753;-94
2022/04/03 11:17:52;;;;;;;13.18;7.70;;;;;;;21.54;52.44;98496.00;1774423;80;25689;-89
2022/04/03 11:20:42;;;;;;;13.32;6.85;;;;;;;21.56;52.61;98493.63;1774895;79;25698;-89
2022/04/03 11:23:14;;;;;;;12.25;7.03;;;;;;;21.58;52.66;98497.41;1719380;82;27641;-90
2022/04/03 11:25:42;;;;;;;13.62;7.28;;;;;;;21.58;52.70;98500.20;1723449;83;25606;-89
2022/04/03 11:28:09;;;;;;;12.95;7.22;;;;;;;21.59;52.81;98496.21;1741171;81;25449;-89
2022/04/03 11:30:36;;;;;;;14.55;7.60;;;;;;;21.59;52.80;98499.81;1740821;82;25749;-89
2022/04/03 11:33:04;;;;;;;13.72;7.22;;;;;;;21.60;52.90;98503.38;1741540;81;25690;-89
2022/04/03 11:35:42;;;;;;;12.98;6.85;;;;;;;21.61;52.93;98507.75;1748286;81;27376;-89